sensor_id;sensor_type;location;lat;lon;timestamp;pressure;altitude;pressure_sealevel;temperature;humidity
55068;BME280;40965;52.368;9.712;2023-12-20T00:00:22;100450.34;;;6.85;100.00
55068;BME280;40965;52.368;9.712;2023-12-20T00:02:55;100452.94;;;6.85;100.00
55068;BME280;40965;52.368;9.712;2023-12-20T00:05:22;100452.94;;;6.85;100.00
55068;BME280;40965;52.368;9.712;2023-12-20T00:07:52;100460.75;;;6.85;100.00
55068;BME280;40965;52.368;9.712;2023-12-20T00:10:21;100457.25;;;6.82;100.00
55068;BME280;40965;52.368;9.712;2023-12-20T00:12:48;100458.06;;;6.71;100.00
55068;BME280;40965;52.368;9.712;2023-12-20T00:15:15;100460.69;;;6.68;100.00
55068;BME280;40965;52.368;9.712;2023-12-20T00:17:42;100471.94;;;6.64;100.00
55068;BME280;40965;52.368;9.712;2023-12-20T00:20:11;100466.72;;;6.58;100.00
55068;BME280;40965;52.368;9.712;2023-12-20T00:22:38;100478.81;;;6.53;100.00
55068;BME280;40965;52.368;9.712;2023-12-20T00:25:05;100477.09;;;6.56;100.00
55068;BME280;40965;52.368;9.712;2023-12-20T00:27:33;100477.97;;;6.54;100.00
55068;BME280;40965;52.368;9.712;2023-12-20T00:30:09;100477.06;;;6.50;100.00
55068;BME280;40965;52.368;9.712;2023-12-20T00:32:39;100480.53;;;6.44;100.00
55068;BME280;40965;52.368;9.712;2023-12-20T00:35:12;100486.56;;;6.40;100.00
55068;BME280;40965;52.368;9.712;2023-12-20T00:37:45;100482.19;;;6.33;100.00
55068;BME280;40965;52.368;9.712;2023-12-20T00:40:12;100493.47;;;6.35;100.00
55068;BME280;40965;52.368;9.712;2023-12-20T00:42:41;100478.72;;;6.37;100.00
55068;BME280;40965;52.368;9.712;2023-12-20T00:45:12;100482.22;;;6.38;100.00
55068;BME280;40965;52.368;9.712;2023-12-20T00:47:40;100495.19;;;6.32;100.00
55068;BME280;40965;52.368;9.712;2023-12-20T00:50:09;100488.22;;;6.31;100.00
55068;BME280;40965;52.368;9.712;2023-12-20T00:52:36;100480.44;;;6.26;100.00
55068;BME280;40965;52.368;9.712;2023-12-20T00:55:03;100480.44;;;6.27;100.00
55068;BME280;40965;52.368;9.712;2023-12-20T00:57:31;100489.91;;;6.19;100.00
55068;BME280;40965;52.368;9.712;2023-12-20T00:59:58;100483.81;;;6.14;100.00
55068;BME280;40965;52.368;9.712;2023-12-20T01:02:28;100482.94;;;6.12;100.00
55068;BME280;40965;52.368;9.712;2023-12-20T01:04:54;100472.53;;;6.09;100.00
55068;BME280;40965;52.368;9.712;2023-12-20T01:07:23;100482.03;;;6.05;100.00
55068;BME280;40965;52.368;9.712;2023-12-20T01:09:50;100482.88;;;6.03;100.00
55068;BME280;40965;52.368;9.712;2023-12-20T01:12:26;100483.72;;;6.02;100.00
55068;BME280;40965;52.368;9.712;2023-12-20T01:14:53;100480.22;;;6.00;100.00
55068;BME280;40965;52.368;9.712;2023-12-20T01:17:23;100478.44;;;5.95;100.00
55068;BME280;40965;52.368;9.712;2023-12-20T01:19:50;100481.03;;;5.94;100.00
55068;BME280;40965;52.368;9.712;2023-12-20T01:22:17;100480.19;;;5.96;100.00
55068;BME280;40965;52.368;9.712;2023-12-20T01:24:44;100475.03;;;5.98;100.00
55068;BME280;40965;52.368;9.712;2023-12-20T01:27:11;100476.78;;;5.99;100.00
55068;BME280;40965;52.368;9.712;2023-12-20T01:29:37;100491.53;;;6.02;100.00
55068;BME280;40965;52.368;9.712;2023-12-20T01:32:07;100488.94;;;6.03;100.00
55068;BME280;40965;52.368;9.712;2023-12-20T01:34:34;100492.44;;;6.07;100.00
55068;BME280;40965;52.368;9.712;2023-12-20T01:37:06;100489.81;;;6.07;100.00
55068;BME280;40965;52.368;9.712;2023-12-20T01:39:36;100491.56;;;6.08;100.00
55068;BME280;40965;52.368;9.712;2023-12-20T01:42:10;100497.63;;;6.05;100.00
55068;BME280;40965;52.368;9.712;2023-12-20T01:44:42;100501.03;;;6.00;100.00
55068;BME280;40965;52.368;9.712;2023-12-20T01:47:13;100487.97;;;5.95;100.00
55068;BME280;40965;52.368;9.712;2023-12-20T01:49:40;100487.06;;;5.87;100.00
55068;BME280;40965;52.368;9.712;2023-12-20T01:52:06;100492.16;;;5.77;100.00
55068;BME280;40965;52.368;9.712;2023-12-20T01:54:35;100492.97;;;5.69;100.00
55068;BME280;40965;52.368;9.712;2023-12-20T01:57:06;100493.81;;;5.66;100.00
55068;BME280;40965;52.368;9.712;2023-12-20T01:59:39;100493.78;;;5.63;100.00
55068;BME280;40965;52.368;9.712;2023-12-20T02:02:07;100495.56;;;5.69;100.00
55068;BME280;40965;52.368;9.712;2023-12-20T02:04:34;100486.03;;;5.71;100.00
55068;BME280;40965;52.368;9.712;2023-12-20T02:07:03;100491.31;;;5.77;100.00
55068;BME280;40965;52.368;9.712;2023-12-20T02:09:31;100495.66;;;5.83;100.00
55068;BME280;40965;52.368;9.712;2023-12-20T02:11:58;100493.91;;;5.80;100.00
55068;BME280;40965;52.368;9.712;2023-12-20T02:14:28;100485.19;;;5.69;100.00
55068;BME280;40965;52.368;9.712;2023-12-20T02:16:55;100473.88;;;5.62;100.00
55068;BME280;40965;52.368;9.712;2023-12-20T02:19:24;100472.91;;;5.54;100.00
55068;BME280;40965;52.368;9.712;2023-12-20T02:22:04;100472.06;;;5.50;100.00
55068;BME280;40965;52.368;9.712;2023-12-20T02:24:35;100457.31;;;5.49;100.00
55068;BME280;40965;52.368;9.712;2023-12-20T02:27:03;100459.88;;;5.44;100.00
55068;BME280;40965;52.368;9.712;2023-12-20T02:29:35;100467.69;;;5.47;100.00
55068;BME280;40965;52.368;9.712;2023-12-20T02:32:03;100465.06;;;5.46;100.00
55068;BME280;40965;52.368;9.712;2023-12-20T02:34:31;100463.38;;;5.51;100.00
55068;BME280;40965;52.368;9.712;2023-12-20T02:36:58;100461.66;;;5.52;100.00
55068;BME280;40965;52.368;9.712;2023-12-20T02:39:25;100458.16;;;5.45;100.00
55068;BME280;40965;52.368;9.712;2023-12-20T02:41:52;100458.09;;;5.42;100.00
55068;BME280;40965;52.368;9.712;2023-12-20T02:44:19;100461.53;;;5.39;100.00
55068;BME280;40965;52.368;9.712;2023-12-20T02:46:46;100465.88;;;5.37;100.00
55068;BME280;40965;52.368;9.712;2023-12-20T02:49:15;100471.94;;;5.39;100.00
55068;BME280;40965;52.368;9.712;2023-12-20T02:51:42;100459.78;;;5.34;100.00
55068;BME280;40965;52.368;9.712;2023-12-20T02:54:09;100458.88;;;5.33;100.00
55068;BME280;40965;52.368;9.712;2023-12-20T02:56:38;100451.06;;;5.27;100.00
55068;BME280;40965;52.368;9.712;2023-12-20T02:59:08;100442.38;;;5.25;100.00
55068;BME280;40965;52.368;9.712;2023-12-20T03:01:43;100445.88;;;5.25;100.00
55068;BME280;40965;52.368;9.712;2023-12-20T03:04:11;100451.06;;;5.27;100.00
55068;BME280;40965;52.368;9.712;2023-12-20T03:06:38;100439.84;;;5.28;100.00
55068;BME280;40965;52.368;9.712;2023-12-20T03:09:05;100441.53;;;5.24;100.00
55068;BME280;40965;52.368;9.712;2023-12-20T03:11:34;100439.78;;;5.22;100.00
55068;BME280;40965;52.368;9.712;2023-12-20T03:14:04;100430.22;;;5.19;100.00
55068;BME280;40965;52.368;9.712;2023-12-20T03:16:35;100422.44;;;5.18;100.00
55068;BME280;40965;52.368;9.712;2023-12-20T03:19:02;100426.72;;;5.17;100.00
55068;BME280;40965;52.368;9.712;2023-12-20T03:21:31;100418.94;;;5.17;100.00
55068;BME280;40965;52.368;9.712;2023-12-20T03:24:00;100408.56;;;5.17;100.00
55068;BME280;40965;52.368;9.712;2023-12-20T03:26:29;100406.81;;;5.16;100.00
55068;BME280;40965;52.368;9.712;2023-12-20T03:29:01;100402.53;;;5.17;100.00
55068;BME280;40965;52.368;9.712;2023-12-20T03:31:31;100399.91;;;5.15;100.00
55068;BME280;40965;52.368;9.712;2023-12-20T03:34:01;100406.81;;;5.13;100.00
55068;BME280;40965;52.368;9.712;2023-12-20T03:36:31;100391.25;;;5.13;100.00
55068;BME280;40965;52.368;9.712;2023-12-20T03:39:01;100386.91;;;5.13;100.00
55068;BME280;40965;52.368;9.712;2023-12-20T03:41:30;100395.59;;;5.16;100.00
55068;BME280;40965;52.368;9.712;2023-12-20T03:43:57;100391.31;;;5.21;100.00
55068;BME280;40965;52.368;9.712;2023-12-20T03:46:27;100390.47;;;5.23;100.00
55068;BME280;40965;52.368;9.712;2023-12-20T03:48:54;100384.44;;;5.24;100.00
55068;BME280;40965;52.368;9.712;2023-12-20T03:51:21;100384.44;;;5.24;100.00
55068;BME280;40965;52.368;9.712;2023-12-20T03:53:50;100382.69;;;5.23;100.00
55068;BME280;40965;52.368;9.712;2023-12-20T03:56:20;100378.41;;;5.27;100.00
55068;BME280;40965;52.368;9.712;2023-12-20T03:58:47;100371.47;;;5.26;100.00
55068;BME280;40965;52.368;9.712;2023-12-20T04:01:16;100381.84;;;5.29;100.00
55068;BME280;40965;52.368;9.712;2023-12-20T04:03:46;100382.69;;;5.26;100.00
55068;BME280;40965;52.368;9.712;2023-12-20T04:06:19;100375.81;;;5.27;100.00
55068;BME280;40965;52.368;9.712;2023-12-20T04:08:48;100376.66;;;5.30;100.00
55068;BME280;40965;52.368;9.712;2023-12-20T04:11:20;100378.41;;;5.33;100.00
55068;BME280;40965;52.368;9.712;2023-12-20T04:13:51;100387.09;;;5.34;100.00
55068;BME280;40965;52.368;9.712;2023-12-20T04:16:22;100382.75;;;5.34;100.00
55068;BME280;40965;52.368;9.712;2023-12-20T04:18:51;100374.97;;;5.31;100.00
55068;BME280;40965;52.368;9.712;2023-12-20T04:21:23;100381.00;;;5.27;100.00
55068;BME280;40965;52.368;9.712;2023-12-20T04:23:50;100385.34;;;5.29;100.00
55068;BME280;40965;52.368;9.712;2023-12-20T04:26:17;100383.66;;;5.35;100.00
55068;BME280;40965;52.368;9.712;2023-12-20T04:28:44;100375.88;;;5.35;100.00
55068;BME280;40965;52.368;9.712;2023-12-20T04:31:10;100377.63;;;5.39;100.00
55068;BME280;40965;52.368;9.712;2023-12-20T04:33:37;100381.13;;;5.42;100.00
55068;BME280;40965;52.368;9.712;2023-12-20T04:36:04;100371.59;;;5.41;100.00
55068;BME280;40965;52.368;9.712;2023-12-20T04:38:30;100358.63;;;5.46;100.00
55068;BME280;40965;52.368;9.712;2023-12-20T04:40:57;100356.91;;;5.48;100.00
55068;BME280;40965;52.368;9.712;2023-12-20T04:43:24;100359.53;;;5.53;100.00
55068;BME280;40965;52.368;9.712;2023-12-20T04:45:51;100345.69;;;5.54;100.00
55068;BME280;40965;52.368;9.712;2023-12-20T04:48:17;100347.44;;;5.58;100.00
55068;BME280;40965;52.368;9.712;2023-12-20T04:50:44;100350.94;;;5.58;100.00
55068;BME280;40965;52.368;9.712;2023-12-20T04:53:15;100350.91;;;5.55;100.00
55068;BME280;40965;52.368;9.712;2023-12-20T04:55:47;100357.81;;;5.52;100.00
55068;BME280;40965;52.368;9.712;2023-12-20T04:58:22;100365.63;;;5.55;100.00
55068;BME280;40965;52.368;9.712;2023-12-20T05:00:49;100360.41;;;5.53;100.00
55068;BME280;40965;52.368;9.712;2023-12-20T05:03:16;100361.31;;;5.61;100.00
55068;BME280;40965;52.368;9.712;2023-12-20T05:05:45;100349.19;;;5.60;100.00
55068;BME280;40965;52.368;9.712;2023-12-20T05:08:14;100350.13;;;5.70;100.00
55068;BME280;40965;52.368;9.712;2023-12-20T05:10:41;100336.25;;;5.67;100.00
55068;BME280;40965;52.368;9.712;2023-12-20T05:13:08;100341.50;;;5.71;100.00
55068;BME280;40965;52.368;9.712;2023-12-20T05:15:34;100344.94;;;5.70;100.00
55068;BME280;40965;52.368;9.712;2023-12-20T05:18:01;100341.50;;;5.71;100.00
55068;BME280;40965;52.368;9.712;2023-12-20T05:20:28;100347.59;;;5.76;100.00
55068;BME280;40965;52.368;9.712;2023-12-20T05:22:55;100340.66;;;5.77;100.00
55068;BME280;40965;52.368;9.712;2023-12-20T05:25:21;100360.63;;;5.84;100.00
55068;BME280;40965;52.368;9.712;2023-12-20T05:28:00;100357.16;;;5.87;100.00
55068;BME280;40965;52.368;9.712;2023-12-20T05:30:35;100355.44;;;5.86;100.00
55068;BME280;40965;52.368;9.712;2023-12-20T05:33:10;100342.41;;;5.81;100.00
55068;BME280;40965;52.368;9.712;2023-12-20T05:35:37;100351.94;;;5.80;100.00
55068;BME280;40965;52.368;9.712;2023-12-20T05:38:03;100345.00;;;5.83;100.00
55068;BME280;40965;52.368;9.712;2023-12-20T05:40:30;100351.94;;;5.85;100.00
55068;BME280;40965;52.368;9.712;2023-12-20T05:42:56;100345.88;;;5.85;100.00
55068;BME280;40965;52.368;9.712;2023-12-20T05:45:25;100350.22;;;5.87;100.00
55068;BME280;40965;52.368;9.712;2023-12-20T05:47:52;100346.75;;;5.84;100.00
55068;BME280;40965;52.368;9.712;2023-12-20T05:50:19;100353.72;;;5.89;100.00
55068;BME280;40965;52.368;9.712;2023-12-20T05:52:46;100355.44;;;5.87;100.00
55068;BME280;40965;52.368;9.712;2023-12-20T05:55:15;100347.63;;;5.84;100.00
55068;BME280;40965;52.368;9.712;2023-12-20T05:57:42;100344.13;;;5.80;100.00
55068;BME280;40965;52.368;9.712;2023-12-20T06:00:10;100340.66;;;5.80;100.00
55068;BME280;40965;52.368;9.712;2023-12-20T06:02:37;100357.09;;;5.76;100.00
55068;BME280;40965;52.368;9.712;2023-12-20T06:05:07;100354.53;;;5.80;100.00
55068;BME280;40965;52.368;9.712;2023-12-20T06:07:35;100345.03;;;5.84;100.00
55068;BME280;40965;52.368;9.712;2023-12-20T06:10:02;100349.34;;;5.79;100.00
55068;BME280;40965;52.368;9.712;2023-12-20T06:12:31;100346.69;;;5.73;100.00
55068;BME280;40965;52.368;9.712;2023-12-20T06:15:00;100337.16;;;5.69;100.00
55068;BME280;40965;52.368;9.712;2023-12-20T06:17:31;100343.13;;;5.57;100.00
55068;BME280;40965;52.368;9.712;2023-12-20T06:19:58;100345.75;;;5.58;100.00
55068;BME280;40965;52.368;9.712;2023-12-20T06:22:24;100351.81;;;5.62;100.00
55068;BME280;40965;52.368;9.712;2023-12-20T06:24:51;100350.03;;;5.56;100.00
55068;BME280;40965;52.368;9.712;2023-12-20T06:27:18;100354.38;;;5.56;100.00
55068;BME280;40965;52.368;9.712;2023-12-20T06:29:44;100346.63;;;5.63;100.00
55068;BME280;40965;52.368;9.712;2023-12-20T06:32:11;100350.09;;;5.64;100.00
55068;BME280;40965;52.368;9.712;2023-12-20T06:34:37;100344.94;;;5.72;100.00
55068;BME280;40965;52.368;9.712;2023-12-20T06:37:04;100333.72;;;5.73;100.00
55068;BME280;40965;52.368;9.712;2023-12-20T06:39:31;100340.66;;;5.74;100.00
55068;BME280;40965;52.368;9.712;2023-12-20T06:41:59;100347.59;;;5.81;100.00
55068;BME280;40965;52.368;9.712;2023-12-20T06:44:26;100337.19;;;5.81;100.00
55068;BME280;40965;52.368;9.712;2023-12-20T06:46:52;100335.47;;;5.78;100.00
55068;BME280;40965;52.368;9.712;2023-12-20T06:49:19;100333.72;;;5.76;100.00
55068;BME280;40965;52.368;9.712;2023-12-20T06:51:48;100312.88;;;5.65;100.00
55068;BME280;40965;52.368;9.712;2023-12-20T06:54:15;100338.81;;;5.60;100.00
55068;BME280;40965;52.368;9.712;2023-12-20T06:56:41;100332.75;;;5.58;100.00
55068;BME280;40965;52.368;9.712;2023-12-20T06:59:08;100335.31;;;5.51;100.00
55068;BME280;40965;52.368;9.712;2023-12-20T07:01:35;100332.72;;;5.51;100.00
55068;BME280;40965;52.368;9.712;2023-12-20T07:04:01;100330.94;;;5.46;100.00
55068;BME280;40965;52.368;9.712;2023-12-20T07:06:28;100322.28;;;5.46;100.00
55068;BME280;40965;52.368;9.712;2023-12-20T07:08:57;100332.69;;;5.47;100.00
55068;BME280;40965;52.368;9.712;2023-12-20T07:11:26;100324.06;;;5.53;100.00
55068;BME280;40965;52.368;9.712;2023-12-20T07:13:53;100325.78;;;5.53;100.00
55068;BME280;40965;52.368;9.712;2023-12-20T07:16:23;100321.47;;;5.50;100.00
55068;BME280;40965;52.368;9.712;2023-12-20T07:18:52;100326.59;;;5.44;100.00
55068;BME280;40965;52.368;9.712;2023-12-20T07:21:22;100298.00;;;5.41;100.00
55068;BME280;40965;52.368;9.712;2023-12-20T07:23:52;100302.34;;;5.42;100.00
55068;BME280;40965;52.368;9.712;2023-12-20T07:26:21;100321.44;;;5.49;100.00
55068;BME280;40965;52.368;9.712;2023-12-20T07:28:51;100333.56;;;5.50;100.00
55068;BME280;40965;52.368;9.712;2023-12-20T07:31:24;100336.19;;;5.54;100.00
55068;BME280;40965;52.368;9.712;2023-12-20T07:33:53;100331.88;;;5.56;100.00
55068;BME280;40965;52.368;9.712;2023-12-20T07:36:20;100333.66;;;5.67;100.00
55068;BME280;40965;52.368;9.712;2023-12-20T07:38:52;100325.88;;;5.67;100.00
55068;BME280;40965;52.368;9.712;2023-12-20T07:41:18;100339.72;;;5.66;100.00
55068;BME280;40965;52.368;9.712;2023-12-20T07:43:49;100322.41;;;5.68;100.00
55068;BME280;40965;52.368;9.712;2023-12-20T07:46:21;100327.59;;;5.65;100.00
55068;BME280;40965;52.368;9.712;2023-12-20T07:48:54;100326.72;;;5.61;100.00
55068;BME280;40965;52.368;9.712;2023-12-20T07:51:23;100327.56;;;5.61;100.00
55068;BME280;40965;52.368;9.712;2023-12-20T07:53:51;100330.16;;;5.61;100.00
55068;BME280;40965;52.368;9.712;2023-12-20T07:56:19;100338.81;;;5.60;100.00
55068;BME280;40965;52.368;9.712;2023-12-20T07:58:47;100336.16;;;5.48;100.00
55068;BME280;40965;52.368;9.712;2023-12-20T08:01:15;100333.56;;;5.51;100.00
55068;BME280;40965;52.368;9.712;2023-12-20T08:03:42;100325.81;;;5.56;100.00
55068;BME280;40965;52.368;9.712;2023-12-20T08:06:14;100324.97;;;5.58;100.00
55068;BME280;40965;52.368;9.712;2023-12-20T08:08:44;100330.13;;;5.54;100.00
55068;BME280;40965;52.368;9.712;2023-12-20T08:11:11;100327.53;;;5.54;100.00
55068;BME280;40965;52.368;9.712;2023-12-20T08:13:41;100328.41;;;5.59;100.00
55068;BME280;40965;52.368;9.712;2023-12-20T08:16:11;100332.75;;;5.58;100.00
55068;BME280;40965;52.368;9.712;2023-12-20T08:18:41;100319.78;;;5.63;100.00
55068;BME280;40965;52.368;9.712;2023-12-20T08:21:08;100310.28;;;5.65;100.00
55068;BME280;40965;52.368;9.712;2023-12-20T08:23:39;100301.66;;;5.68;100.00
55068;BME280;40965;52.368;9.712;2023-12-20T08:26:07;100306.88;;;5.80;100.00
55068;BME280;40965;52.368;9.712;2023-12-20T08:28:34;100305.22;;;5.88;100.00
55068;BME280;40965;52.368;9.712;2023-12-20T08:31:02;100288.75;;;5.88;100.00
55068;BME280;40965;52.368;9.712;2023-12-20T08:33:29;100301.78;;;5.95;100.00
55068;BME280;40965;52.368;9.712;2023-12-20T08:35:55;100295.78;;;6.01;100.00
55068;BME280;40965;52.368;9.712;2023-12-20T08:38:28;100297.50;;;5.99;100.00
55068;BME280;40965;52.368;9.712;2023-12-20T08:40:55;100287.97;;;6.03;100.00
55068;BME280;40965;52.368;9.712;2023-12-20T08:43:21;100287.97;;;6.03;100.00
55068;BME280;40965;52.368;9.712;2023-12-20T08:45:51;100285.38;;;6.03;100.00
55068;BME280;40965;52.368;9.712;2023-12-20T08:48:21;100282.81;;;6.09;100.00
55068;BME280;40965;52.368;9.712;2023-12-20T08:50:57;100281.94;;;6.07;100.00
55068;BME280;40965;52.368;9.712;2023-12-20T08:53:24;100268.94;;;6.04;100.00
55068;BME280;40965;52.368;9.712;2023-12-20T08:55:53;100281.94;;;6.10;100.00
55068;BME280;40965;52.368;9.712;2023-12-20T08:58:29;100285.38;;;6.07;100.00
55068;BME280;40965;52.368;9.712;2023-12-20T09:00:56;100262.88;;;6.09;100.00
55068;BME280;40965;52.368;9.712;2023-12-20T09:03:23;100266.34;;;6.05;100.00
55068;BME280;40965;52.368;9.712;2023-12-20T09:05:49;100262.91;;;6.17;100.00
55068;BME280;40965;52.368;9.712;2023-12-20T09:08:16;100246.47;;;6.21;100.00
55068;BME280;40965;52.368;9.712;2023-12-20T09:10:43;100253.38;;;6.13;100.00
55068;BME280;40965;52.368;9.712;2023-12-20T09:13:10;100244.72;;;6.17;100.00
55068;BME280;40965;52.368;9.712;2023-12-20T09:15:37;100249.91;;;6.14;100.00
55068;BME280;40965;52.368;9.712;2023-12-20T09:18:07;100224.75;;;6.08;100.00
55068;BME280;40965;52.368;9.712;2023-12-20T09:20:34;100234.31;;;6.19;100.00
55068;BME280;40965;52.368;9.712;2023-12-20T09:23:00;100220.47;;;6.21;100.00
55068;BME280;40965;52.368;9.712;2023-12-20T09:25:33;100240.41;;;6.22;100.00
55068;BME280;40965;52.368;9.712;2023-12-20T09:27:59;100228.28;;;6.17;100.00
55068;BME280;40965;52.368;9.712;2023-12-20T09:30:27;100225.66;;;6.18;100.00
55068;BME280;40965;52.368;9.712;2023-12-20T09:32:55;100228.28;;;6.26;100.00
55068;BME280;40965;52.368;9.712;2023-12-20T09:35:22;100230.03;;;6.30;100.00
55068;BME280;40965;52.368;9.712;2023-12-20T09:37:49;100226.56;;;6.31;100.00
55068;BME280;40965;52.368;9.712;2023-12-20T09:40:18;100214.41;;;6.32;100.00
55068;BME280;40965;52.368;9.712;2023-12-20T09:42:58;100216.19;;;6.39;100.00
55068;BME280;40965;52.368;9.712;2023-12-20T09:45:31;100222.22;;;6.41;100.00
55068;BME280;40965;52.368;9.712;2023-12-20T09:48:01;100223.09;;;6.43;100.00
55068;BME280;40965;52.368;9.712;2023-12-20T09:50:30;100220.50;;;6.48;100.00
55068;BME280;40965;52.368;9.712;2023-12-20T09:52:58;100203.19;;;6.57;100.00
55068;BME280;40965;52.368;9.712;2023-12-20T09:55:31;100223.09;;;6.66;100.00
55068;BME280;40965;52.368;9.712;2023-12-20T09:57:59;100191.91;;;6.68;100.00
55068;BME280;40965;52.368;9.712;2023-12-20T10:00:27;100199.69;;;6.65;100.00
55068;BME280;40965;52.368;9.712;2023-12-20T10:02:57;100204.91;;;6.71;100.00
55068;BME280;40965;52.368;9.712;2023-12-20T10:05:32;100206.63;;;6.75;100.00
55068;BME280;40965;52.368;9.712;2023-12-20T10:08:00;100199.69;;;6.74;100.00
55068;BME280;40965;52.368;9.712;2023-12-20T10:10:27;100200.56;;;6.85;100.00
55068;BME280;40965;52.368;9.712;2023-12-20T10:13:06;100198.81;;;6.89;100.00
55068;BME280;40965;52.368;9.712;2023-12-20T10:15:36;100192.75;;;6.79;100.00
55068;BME280;40965;52.368;9.712;2023-12-20T10:18:08;100194.47;;;6.80;100.00
55068;BME280;40965;52.368;9.712;2023-12-20T10:20:34;100189.28;;;6.85;100.00
55068;BME280;40965;52.368;9.712;2023-12-20T10:23:04;100200.56;;;6.82;100.00
55068;BME280;40965;52.368;9.712;2023-12-20T10:25:31;100188.41;;;6.90;100.00
55068;BME280;40965;52.368;9.712;2023-12-20T10:28:15;100184.97;;;6.82;100.00
55068;BME280;40965;52.368;9.712;2023-12-20T10:30:44;100189.28;;;6.78;100.00
55068;BME280;40965;52.368;9.712;2023-12-20T10:33:11;100191.03;;;6.81;100.00
55068;BME280;40965;52.368;9.712;2023-12-20T10:35:40;100180.63;;;6.87;100.00
55068;BME280;40965;52.368;9.712;2023-12-20T10:38:07;100171.09;;;6.85;100.00
55068;BME280;40965;52.368;9.712;2023-12-20T10:40:36;100182.34;;;6.90;100.00
55068;BME280;40965;52.368;9.712;2023-12-20T10:43:04;100186.69;;;6.82;100.00
55068;BME280;40965;52.368;9.712;2023-12-20T10:45:31;100183.19;;;6.90;100.00
55068;BME280;40965;52.368;9.712;2023-12-20T10:47:58;100187.56;;;6.90;100.00
55068;BME280;40965;52.368;9.712;2023-12-20T10:50:27;100189.28;;;6.85;100.00
55068;BME280;40965;52.368;9.712;2023-12-20T10:52:55;100184.09;;;6.85;100.00
55068;BME280;40965;52.368;9.712;2023-12-20T10:55:25;100182.38;;;6.81;100.00
55068;BME280;40965;52.368;9.712;2023-12-20T10:57:54;100191.03;;;6.86;100.00
55068;BME280;40965;52.368;9.712;2023-12-20T11:00:29;100168.50;;;6.83;100.00
55068;BME280;40965;52.368;9.712;2023-12-20T11:03:03;100167.59;;;6.90;100.00
55068;BME280;40965;52.368;9.712;2023-12-20T11:05:38;100172.81;;;6.95;100.00
55068;BME280;40965;52.368;9.712;2023-12-20T11:08:22;100173.63;;;7.03;100.00
55068;BME280;40965;52.368;9.712;2023-12-20T11:11:05;100162.38;;;7.03;100.00
55068;BME280;40965;52.368;9.712;2023-12-20T11:13:37;100160.63;;;6.99;100.00
55068;BME280;40965;52.368;9.712;2023-12-20T11:16:08;100158.88;;;7.04;100.00
55068;BME280;40965;52.368;9.712;2023-12-20T11:18:35;100156.34;;;6.88;100.00
55068;BME280;40965;52.368;9.712;2023-12-20T11:21:04;100138.97;;;6.84;100.00
55068;BME280;40965;52.368;9.712;2023-12-20T11:23:35;100158.06;;;6.80;100.00
55068;BME280;40965;52.368;9.712;2023-12-20T11:26:02;100160.69;;;6.68;100.00
55068;BME280;40965;52.368;9.712;2023-12-20T11:28:29;100156.38;;;6.65;100.00
55068;BME280;40965;52.368;9.712;2023-12-20T11:30:57;100156.34;;;6.59;100.00
55068;BME280;40965;52.368;9.712;2023-12-20T11:33:27;100147.72;;;6.51;100.00
55068;BME280;40965;52.368;9.712;2023-12-20T11:35:59;100152.88;;;6.49;100.00
55068;BME280;40965;52.368;9.712;2023-12-20T11:38:26;100178.03;;;6.58;100.00
55068;BME280;40965;52.368;9.712;2023-12-20T11:40:56;100189.28;;;6.57;100.00
55068;BME280;40965;52.368;9.712;2023-12-20T11:43:56;100208.38;;;6.48;100.00
55068;BME280;40965;52.368;9.712;2023-12-20T11:46:22;100222.22;;;6.38;100.00
55068;BME280;40965;52.368;9.712;2023-12-20T11:48:50;100230.81;;;6.03;100.00
55068;BME280;40965;52.368;9.712;2023-12-20T11:51:17;100227.22;;;5.70;100.00
55068;BME280;40965;52.368;9.712;2023-12-20T11:53:44;100213.31;;;5.57;100.00
55068;BME280;40965;52.368;9.712;2023-12-20T11:56:11;100200.19;;;5.30;100.00
55068;BME280;40965;52.368;9.712;2023-12-20T11:58:37;100213.16;;;5.24;100.00
55068;BME280;40965;52.368;9.712;2023-12-20T12:01:04;100214.75;;;5.08;100.00
55068;BME280;40965;52.368;9.712;2023-12-20T12:03:34;100207.81;;;5.00;100.00
55068;BME280;40965;52.368;9.712;2023-12-20T12:06:04;100207.75;;;4.96;100.00
55068;BME280;40965;52.368;9.712;2023-12-20T12:08:30;100187.00;;;4.95;100.00
55068;BME280;40965;52.368;9.712;2023-12-20T12:11:00;100180.06;;;4.92;100.00
55068;BME280;40965;52.368;9.712;2023-12-20T12:13:27;100175.78;;;4.97;100.00
55068;BME280;40965;52.368;9.712;2023-12-20T12:15:54;100174.09;;;4.98;100.00
55068;BME280;40965;52.368;9.712;2023-12-20T12:18:23;100166.31;;;5.01;100.00
55068;BME280;40965;52.368;9.712;2023-12-20T12:21:00;100176.72;;;5.07;100.00
55068;BME280;40965;52.368;9.712;2023-12-20T12:23:31;100181.13;;;5.19;100.00
55068;BME280;40965;52.368;9.712;2023-12-20T12:25:59;100179.41;;;5.24;100.00
55068;BME280;40965;52.368;9.712;2023-12-20T12:28:26;100167.28;;;5.26;100.00
55068;BME280;40965;52.368;9.712;2023-12-20T12:30:58;100176.84;;;5.34;100.00
55068;BME280;40965;52.368;9.712;2023-12-20T12:33:27;100170.78;;;5.33;100.00
55068;BME280;40965;52.368;9.712;2023-12-20T12:35:54;100173.41;;;5.38;100.00
55068;BME280;40965;52.368;9.712;2023-12-20T12:38:24;100166.47;;;5.35;100.00
55068;BME280;40965;52.368;9.712;2023-12-20T12:40:51;100166.44;;;5.29;100.00
55068;BME280;40965;52.368;9.712;2023-12-20T12:43:21;100157.75;;;5.22;100.00
55068;BME280;40965;52.368;9.712;2023-12-20T12:45:48;100161.22;;;5.18;100.00
55068;BME280;40965;52.368;9.712;2023-12-20T12:48:15;100164.69;;;5.23;100.00
55068;BME280;40965;52.368;9.712;2023-12-20T12:50:42;100165.56;;;5.24;100.00
55068;BME280;40965;52.368;9.712;2023-12-20T12:53:11;100169.94;;;5.29;100.00
55068;BME280;40965;52.368;9.712;2023-12-20T12:55:40;100158.66;;;5.24;100.00
55068;BME280;40965;52.368;9.712;2023-12-20T12:58:07;100159.50;;;5.23;100.00